Time;durP1;ratioP1;P1;durP2;ratioP2;P2;SDS_P1;SDS_P2;PMS_P1;PMS_P2;Temp;Humidity;BMP_temperature;BMP_pressure;BME280_temperature;BME280_humidity;BME280_pressure;Samples;Min_cycle;Max_cycle;Signal;HPM_P1;HPM_P2
2023/12/12 00:01:24;;;;;;;2.63;2.43;;;;;;;1.22;nan;-23849.59;5034631;28;20663;-63
2023/12/12 00:03:50;;;;;;;3.73;3.00;;;;;;;1.38;nan;-23854.03;5034583;28;20263;-63
2023/12/12 00:06:16;;;;;;;3.67;2.57;;;;;;;1.51;nan;-23857.88;5034456;28;20262;-63
2023/12/12 00:08:42;;;;;;;4.70;3.73;;;;;;;1.62;nan;-23860.88;5033979;28;20654;-63
2023/12/12 00:11:07;;;;;;;5.27;3.90;;;;;;;1.12;nan;-23846.72;5034844;28;20175;-67
2023/12/12 00:13:33;;;;;;;2.47;2.27;;;;;;;1.71;nan;-23863.59;5033604;28;20175;-63
2023/12/12 00:15:58;;;;;;;2.60;1.90;;;;;;;1.83;nan;-23866.75;5033183;28;20191;-63
2023/12/12 00:18:24;;;;;;;3.50;2.77;;;;;;;1.63;nan;-23861.31;5033746;28;20187;-63
2023/12/12 00:20:50;;;;;;;2.30;2.10;;;;;;;1.81;nan;-23866.16;5033738;28;20191;-64
2023/12/12 00:23:15;;;;;;;4.53;2.87;;;;;;;1.63;nan;-23861.31;5033339;28;20175;-66
2023/12/12 00:25:41;;;;;;;2.80;2.53;;;;;;;1.85;nan;-23867.47;5033410;28;20179;-63
2023/12/12 00:28:06;;;;;;;2.20;2.10;;;;;;;1.72;nan;-23863.75;5033655;28;20179;-63
2023/12/12 00:30:32;;;;;;;1.93;1.83;;;;;;;1.86;nan;-23867.59;5034228;28;20694;-63
2023/12/12 00:32:57;;;;;;;2.60;2.40;;;;;;;2.00;nan;-23871.75;5034494;28;20179;-63
2023/12/12 00:35:23;;;;;;;4.40;3.37;;;;;;;0.75;nan;-23836.44;5033982;28;20199;-63
2023/12/12 00:37:48;;;;;;;5.00;2.90;;;;;;;2.04;nan;-23872.75;5033839;28;20219;-63
2023/12/12 00:40:13;;;;;;;4.90;2.73;;;;;;;1.89;nan;-23868.47;5034065;28;20615;-63
2023/12/12 00:42:39;;;;;;;5.00;3.90;;;;;;;1.68;nan;-23862.59;5033950;28;20167;-65
2023/12/12 00:45:06;;;;;;;1.73;1.63;;;;;;;1.47;nan;-23856.75;5034115;28;20754;-62
2023/12/12 00:47:32;;;;;;;3.37;3.07;;;;;;;1.39;nan;-23854.31;5033769;28;20172;-63
2023/12/12 00:49:57;;;;;;;2.90;2.53;;;;;;;1.66;nan;-23862.19;5033909;28;20179;-63
2023/12/12 00:52:23;;;;;;;4.10;3.57;;;;;;;1.57;nan;-23859.59;5033638;28;20180;-63
2023/12/12 00:54:49;;;;;;;2.57;2.37;;;;;;;1.54;nan;-23858.59;5034051;28;20183;-62
2023/12/12 00:57:14;;;;;;;4.60;3.13;;;;;;;1.32;nan;-23852.59;5033846;28;20207;-64
2023/12/12 00:59:40;;;;;;;2.70;2.50;;;;;;;1.06;nan;-23845.03;5033844;28;20324;-64
2023/12/12 01:02:05;;;;;;;6.93;3.00;;;;;;;1.14;nan;-23847.44;5033540;28;20554;-63
2023/12/12 01:04:34;;;;;;;7.37;2.80;;;;;;;1.29;nan;-23851.59;5033631;28;20313;-63
2023/12/12 01:07:00;;;;;;;2.07;1.93;;;;;;;1.19;nan;-23848.88;5033347;28;20262;-64
2023/12/12 01:09:26;;;;;;;2.70;2.30;;;;;;;1.44;nan;-23855.88;5033283;28;20635;-63
2023/12/12 01:11:51;;;;;;;5.10;2.33;;;;;;;1.61;nan;-23860.59;5032821;28;20178;-63
2023/12/12 01:14:16;;;;;;;2.33;2.20;;;;;;;1.41;nan;-23855.03;5033575;28;20190;-62
2023/12/12 01:16:42;;;;;;;5.43;1.97;;;;;;;1.27;nan;-23851.03;5033384;28;20195;-63
2023/12/12 01:19:07;;;;;;;5.70;2.17;;;;;;;1.45;nan;-23856.03;5033291;28;20583;-62
2023/12/12 01:21:33;;;;;;;6.23;2.47;;;;;;;1.54;nan;-23858.59;5033224;28;20160;-63
2023/12/12 01:23:58;;;;;;;2.63;2.43;;;;;;;1.39;nan;-23854.31;5033653;28;20167;-63
2023/12/12 01:26:24;;;;;;;3.77;3.03;;;;;;;1.79;nan;-23865.75;5033446;28;20294;-63
2023/12/12 01:28:51;;;;;;;2.73;2.53;;;;;;;1.75;nan;-23864.59;5033190;28;20251;-63
2023/12/12 01:31:17;;;;;;;2.30;2.10;;;;;;;1.52;nan;-23858.16;5032806;28;20245;-64
2023/12/12 01:33:43;;;;;;;4.20;2.80;;;;;;;1.52;nan;-23858.16;5032994;28;20182;-63
2023/12/12 01:36:09;;;;;;;3.33;3.10;;;;;;;1.39;nan;-23854.44;5033366;28;20234;-63
2023/12/12 01:38:35;;;;;;;2.83;2.23;;;;;;;1.60;nan;-23860.47;5033403;28;20191;-64
2023/12/12 01:41:01;;;;;;;2.27;2.07;;;;;;;1.51;nan;-23857.75;5033127;28;20176;-62
2023/12/12 01:43:28;;;;;;;1.77;1.67;;;;;;;1.38;nan;-23854.16;5032813;28;20186;-63
2023/12/12 01:46:01;;;;;;;5.93;2.70;;;;;;;1.61;nan;-23860.59;5032844;28;20187;-63
2023/12/12 01:48:28;;;;;;;2.93;2.37;;;;;;;1.70;nan;-23863.16;5032880;28;20172;-63
2023/12/12 01:50:55;;;;;;;3.03;2.83;;;;;;;1.57;nan;-23859.59;5032606;28;20184;-64
2023/12/12 01:53:24;;;;;;;1.77;1.67;;;;;;;1.88;nan;-23868.31;5032515;28;20572;-64
2023/12/12 01:55:51;;;;;;;2.13;2.03;;;;;;;1.71;nan;-23863.47;5032544;28;20175;-63
2023/12/12 01:58:18;;;;;;;6.97;3.00;;;;;;;1.96;nan;-23870.47;5032465;28;20244;-63
2023/12/12 02:00:44;;;;;;;2.77;1.80;;;;;;;2.01;nan;-23871.88;5032533;28;20658;-64
2023/12/12 02:03:10;;;;;;;3.80;2.43;;;;;;;1.77;nan;-23865.31;5032635;28;20172;-64
2023/12/12 02:05:37;;;;;;;3.13;2.27;;;;;;;2.11;nan;-23874.75;5032483;28;20614;-63
2023/12/12 02:08:03;;;;;;;3.67;3.37;;;;;;;1.85;nan;-23867.31;5032622;28;20183;-63
2023/12/12 02:10:28;;;;;;;3.07;2.57;;;;;;;2.06;nan;-23873.31;5032895;28;20627;-63
2023/12/12 02:12:53;;;;;;;3.03;2.20;;;;;;;1.72;nan;-23863.75;5032299;28;20217;-64
2023/12/12 02:15:19;;;;;;;3.50;3.20;;;;;;;2.00;nan;-23871.59;5032409;28;20586;-64
2023/12/12 02:17:45;;;;;;;1.70;1.50;;;;;;;2.22;nan;-23878.03;5032172;28;20235;-64
2023/12/12 02:20:12;;;;;;;2.40;2.23;;;;;;;2.27;nan;-23879.31;5031028;28;20188;-64
2023/12/12 02:22:37;;;;;;;2.70;2.50;;;;;;;2.22;nan;-23877.88;5030840;28;20171;-63
2023/12/12 02:25:03;;;;;;;4.73;1.67;;;;;;;2.33;nan;-23880.88;5031858;28;20186;-64
2023/12/12 02:27:29;;;;;;;3.43;2.93;;;;;;;2.36;nan;-23881.88;5031811;28;20178;-63
2023/12/12 02:29:54;;;;;;;2.83;2.63;;;;;;;2.23;nan;-23878.31;5031610;28;20318;-63
2023/12/12 02:32:20;;;;;;;2.77;2.57;;;;;;;2.25;nan;-23878.75;5031818;28;20171;-63
2023/12/12 02:34:46;;;;;;;3.97;2.70;;;;;;;2.14;nan;-23875.59;5031625;28;20637;-64
2023/12/12 02:37:12;;;;;;;6.37;3.33;;;;;;;2.13;nan;-23875.47;5031491;28;20206;-64
2023/12/12 02:39:37;;;;;;;2.80;2.60;;;;;;;1.88;nan;-23868.16;5031850;28;20561;-63
2023/12/12 02:42:03;;;;;;;5.27;2.73;;;;;;;2.16;nan;-23876.16;5031447;28;20211;-64
2023/12/12 02:44:28;;;;;;;3.90;3.03;;;;;;;2.07;nan;-23873.75;5031350;28;20179;-63
2023/12/12 02:46:54;;;;;;;2.60;2.30;;;;;;;2.02;nan;-23872.16;5031096;28;20254;-63
2023/12/12 02:49:19;;;;;;;2.63;2.00;;;;;;;2.02;nan;-23872.16;5031121;28;20180;-64
2023/12/12 02:51:45;;;;;;;3.83;2.23;;;;;;;1.86;nan;-23867.59;5031398;28;20176;-64
2023/12/12 02:54:10;;;;;;;3.43;2.80;;;;;;;1.90;nan;-23868.75;5030108;28;20182;-66
2023/12/12 02:56:35;;;;;;;1.77;1.67;;;;;;;1.72;nan;-23863.75;5029493;28;20545;-64
2023/12/12 02:59:01;;;;;;;1.43;1.37;;;;;;;1.98;nan;-23871.03;5029813;28;20202;-64
2023/12/12 03:01:27;;;;;;;3.73;2.57;;;;;;;1.92;nan;-23869.47;5029459;28;20185;-64
2023/12/12 03:03:52;;;;;;;2.93;2.37;;;;;;;1.83;nan;-23866.75;5029284;28;20168;-63
2023/12/12 03:06:17;;;;;;;4.97;3.27;;;;;;;1.81;nan;-23866.16;5029459;28;20666;-63
2023/12/12 03:08:43;;;;;;;3.00;2.70;;;;;;;1.44;nan;-23855.88;5029974;28;20180;-64
2023/12/12 03:11:08;;;;;;;1.93;1.83;;;;;;;1.67;nan;-23862.31;5031750;28;20647;-64
2023/12/12 03:13:34;;;;;;;5.87;2.80;;;;;;;1.74;nan;-23864.47;5031399;28;20226;-63
2023/12/12 03:15:59;;;;;;;2.10;1.90;;;;;;;1.73;nan;-23864.03;5031192;28;20195;-64
2023/12/12 03:18:25;;;;;;;3.73;1.93;;;;;;;1.53;nan;-23858.44;5030773;28;20591;-63
2023/12/12 03:20:50;;;;;;;2.63;2.43;;;;;;;1.43;nan;-23855.59;5031153;28;20211;-64
2023/12/12 03:23:15;;;;;;;2.93;2.03;;;;;;;1.43;nan;-23855.59;5031217;28;20758;-64
2023/12/12 03:25:41;;;;;;;2.93;2.47;;;;;;;1.53;nan;-23858.31;5031108;28;20258;-63
2023/12/12 03:28:06;;;;;;;2.47;2.27;;;;;;;1.78;nan;-23865.47;5030969;28;20356;-64
2023/12/12 03:30:32;;;;;;;4.90;4.10;;;;;;;1.68;nan;-23862.59;5031087;28;20222;-63
2023/12/12 03:32:57;;;;;;;2.40;2.07;;;;;;;1.71;nan;-23863.59;5030514;28;20179;-63
2023/12/12 03:35:23;;;;;;;2.83;2.63;;;;;;;1.93;nan;-23869.59;5031566;28;20721;-64
2023/12/12 03:37:48;;;;;;;2.83;2.63;;;;;;;1.76;nan;-23864.88;5029848;28;20206;-66
2023/12/12 03:40:14;;;;;;;1.80;1.70;;;;;;;2.05;nan;-23873.03;5031019;28;20618;-64
2023/12/12 03:42:39;;;;;;;2.80;2.40;;;;;;;2.11;nan;-23874.75;5030747;28;20270;-62
2023/12/12 03:45:06;;;;;;;2.37;1.67;;;;;;;2.05;nan;-23873.16;5031404;28;20175;-63
2023/12/12 03:47:31;;;;;;;2.63;2.43;;;;;;;1.93;nan;-23869.59;5030389;28;20186;-64
2023/12/12 03:49:57;;;;;;;2.13;1.97;;;;;;;1.91;nan;-23869.16;5031081;28;20293;-64
2023/12/12 03:52:22;;;;;;;2.40;2.10;;;;;;;2.11;nan;-23874.75;5030507;28;20254;-65
2023/12/12 03:54:48;;;;;;;2.57;2.37;;;;;;;2.02;nan;-23872.16;5030803;28;20241;-64
2023/12/12 03:57:14;;;;;;;2.63;2.43;;;;;;;1.88;nan;-23868.16;5030761;28;20199;-64
2023/12/12 03:59:39;;;;;;;4.67;2.57;;;;;;;2.06;nan;-23873.31;5030718;28;20202;-62
2023/12/12 04:02:05;;;;;;;2.20;2.00;;;;;;;1.99;nan;-23871.47;5030362;28;20642;-64
2023/12/12 04:04:30;;;;;;;2.80;2.53;;;;;;;2.22;nan;-23877.88;5030727;28;20172;-64
2023/12/12 04:06:56;;;;;;;3.33;3.03;;;;;;;2.08;nan;-23873.88;5030664;28;20264;-64
2023/12/12 04:09:21;;;;;;;2.20;2.10;;;;;;;2.08;nan;-23873.88;5030574;28;20180;-64
2023/12/12 04:11:46;;;;;;;2.97;2.10;;;;;;;2.19;nan;-23877.03;5030684;28;20262;-63
2023/12/12 04:14:12;;;;;;;3.00;2.33;;;;;;;2.29;nan;-23879.75;5030526;28;20180;-63
2023/12/12 04:16:38;;;;;;;2.93;2.73;;;;;;;2.29;nan;-23879.88;5029438;28;20279;-64
2023/12/12 04:19:04;;;;;;;3.00;2.80;;;;;;;2.19;nan;-23877.16;5030652;28;20219;-63
2023/12/12 04:21:29;;;;;;;1.90;1.80;;;;;;;2.17;nan;-23876.47;5030395;28;20561;-63
2023/12/12 04:23:55;;;;;;;2.00;1.90;;;;;;;2.03;nan;-23872.47;5030612;28;20258;-64
2023/12/12 04:26:20;;;;;;;3.23;2.93;;;;;;;2.28;nan;-23879.59;5030760;28;20249;-64
2023/12/12 04:28:45;;;;;;;2.03;1.87;;;;;;;2.23;nan;-23878.16;5030169;28;20207;-64
2023/12/12 04:31:16;;;;;;;1.97;1.87;;;;;;;2.43;nan;-23883.88;5030320;28;20230;-63
2023/12/12 04:33:41;;;;;;;3.83;2.37;;;;;;;2.44;nan;-23884.03;5030686;28;20253;-63
2023/12/12 04:36:07;;;;;;;2.63;2.43;;;;;;;2.25;nan;-23878.75;5030285;28;20721;-63
2023/12/12 04:38:35;;;;;;;4.80;2.33;;;;;;;2.57;nan;-23887.88;5030745;28;20197;-64
2023/12/12 04:41:03;;;;;;;2.60;2.40;;;;;;;2.44;nan;-23884.03;5030352;28;20210;-63
2023/12/12 04:43:29;;;;;;;2.87;2.67;;;;;;;2.50;nan;-23885.88;5030295;28;20236;-64
2023/12/12 04:45:55;;;;;;;3.37;2.93;;;;;;;2.36;nan;-23881.88;5031438;28;20175;-64
2023/12/12 04:48:21;;;;;;;2.13;1.83;;;;;;;2.43;nan;-23883.75;5035112;28;20666;-63
2023/12/12 04:50:46;;;;;;;2.13;2.03;;;;;;;2.35;nan;-23881.59;5034292;28;20208;-64
2023/12/12 04:53:11;;;;;;;3.20;2.90;;;;;;;2.18;nan;-23876.75;5033682;28;20773;-64
2023/12/12 04:55:37;;;;;;;4.30;3.07;;;;;;;2.09;nan;-23874.16;5033416;28;20176;-65
2023/12/12 04:58:02;;;;;;;5.17;3.00;;;;;;;2.27;nan;-23879.31;5033729;28;20356;-63
2023/12/12 05:00:28;;;;;;;2.77;2.57;;;;;;;2.29;nan;-23879.88;5033201;28;20172;-64
2023/12/12 05:02:53;;;;;;;4.60;2.77;;;;;;;2.34;nan;-23881.31;5033953;28;20626;-63
2023/12/12 05:05:18;;;;;;;3.00;2.80;;;;;;;2.32;nan;-23880.59;5033261;28;20171;-64
2023/12/12 05:07:44;;;;;;;4.63;3.53;;;;;;;1.26;nan;-23850.72;5033398;28;20220;-64
2023/12/12 05:10:09;;;;;;;2.43;2.23;;;;;;;2.26;nan;-23878.88;5033374;28;20179;-63
2023/12/12 05:12:35;;;;;;;2.80;2.40;;;;;;;2.27;nan;-23879.31;5033005;28;20642;-63
2023/12/12 05:15:00;;;;;;;3.63;3.33;;;;;;;2.53;nan;-23886.59;5032821;28;20171;-64
2023/12/12 05:17:26;;;;;;;2.87;2.53;;;;;;;2.14;nan;-23875.59;5033339;28;20672;-63
2023/12/12 05:19:51;;;;;;;1.67;1.57;;;;;;;2.35;nan;-23881.59;5033207;28;20713;-64
2023/12/12 05:22:17;;;;;;;5.03;2.50;;;;;;;2.58;nan;-23888.03;5033342;28;20308;-63
2023/12/12 05:24:43;;;;;;;3.57;3.27;;;;;;;2.16;nan;-23876.16;5033270;28;20163;-64
2023/12/12 05:27:08;;;;;;;3.97;3.07;;;;;;;2.26;nan;-23879.03;5032677;28;20220;-64
2023/12/12 05:29:33;;;;;;;4.30;3.23;;;;;;;2.19;nan;-23877.03;5032443;28;20164;-63
2023/12/12 05:31:59;;;;;;;4.73;3.73;;;;;;;2.37;nan;-23882.03;5033181;28;20214;-64
2023/12/12 05:34:24;;;;;;;5.03;3.43;;;;;;;1.88;nan;-23868.16;5033220;28;20577;-63
2023/12/12 05:36:50;;;;;;;4.63;4.27;;;;;;;2.00;nan;-23871.75;5031360;28;20296;-64
2023/12/12 05:39:15;;;;;;;2.90;2.70;;;;;;;1.85;nan;-23867.31;5033179;28;20550;-64
2023/12/12 05:41:41;;;;;;;3.37;2.97;;;;;;;2.12;nan;-23875.03;5032745;28;20167;-63
2023/12/12 05:44:07;;;;;;;3.87;3.10;;;;;;;2.12;nan;-23875.03;5032482;28;20618;-65
2023/12/12 05:46:33;;;;;;;3.50;3.17;;;;;;;1.99;nan;-23871.31;5032626;28;20203;-63
2023/12/12 05:48:59;;;;;;;3.70;3.40;;;;;;;1.53;nan;-23858.31;5032479;28;20647;-65
2023/12/12 05:51:26;;;;;;;3.77;2.23;;;;;;;1.28;nan;-23851.31;5021315;28;20551;-63
2023/12/12 05:53:52;;;;;;;2.73;2.53;;;;;;;1.62;nan;-23861.03;5021002;28;20218;-65
2023/12/12 05:56:18;;;;;;;2.77;2.57;;;;;;;1.39;nan;-23854.44;5020486;28;20253;-64
2023/12/12 05:58:44;;;;;;;3.17;2.47;;;;;;;1.46;nan;-23856.47;5021956;28;20263;-64
2023/12/12 06:01:09;;;;;;;6.43;3.27;;;;;;;1.75;nan;-23864.75;5030534;28;20176;-64
2023/12/12 06:03:35;;;;;;;2.57;2.37;;;;;;;1.84;nan;-23867.03;5032196;28;20176;-64
2023/12/12 06:06:02;;;;;;;4.57;2.63;;;;;;;1.96;nan;-23870.59;5031965;28;20555;-63
2023/12/12 06:08:28;;;;;;;2.90;2.70;;;;;;;1.76;nan;-23864.88;5032138;28;20238;-64
2023/12/12 06:10:53;;;;;;;4.77;3.93;;;;;;;2.08;nan;-23874.03;5022935;28;20191;-64
2023/12/12 06:13:19;;;;;;;3.27;2.67;;;;;;;2.12;nan;-23875.03;5019338;28;20238;-65
2023/12/12 06:15:44;;;;;;;3.17;2.40;;;;;;;2.15;nan;-23876.03;5011736;28;20180;-64
2023/12/12 06:18:09;;;;;;;3.73;3.07;;;;;;;2.05;nan;-23873.16;5011404;28;20259;-65
2023/12/12 06:20:35;;;;;;;2.93;2.30;;;;;;;2.20;nan;-23877.31;5011776;28;20259;-65
2023/12/12 06:23:01;;;;;;;2.17;1.97;;;;;;;2.33;nan;-23880.88;5012105;28;20242;-65
2023/12/12 06:25:26;;;;;;;2.80;2.53;;;;;;;2.06;nan;-23873.31;5015861;28;20243;-64
2023/12/12 06:27:52;;;;;;;4.03;3.53;;;;;;;2.22;nan;-23878.03;5030860;28;20179;-63
2023/12/12 06:30:18;;;;;;;3.53;3.23;;;;;;;2.56;nan;-23887.59;5031245;28;20643;-63
2023/12/12 06:32:44;;;;;;;2.43;2.23;;;;;;;2.82;nan;-23894.88;5031306;28;20171;-65
2023/12/12 06:35:11;;;;;;;2.83;2.63;;;;;;;2.91;nan;-23897.28;5031431;28;20210;-64
2023/12/12 06:37:37;;;;;;;20.57;3.60;;;;;;;3.07;nan;-23901.84;5031127;28;20233;-64
2023/12/12 06:40:03;;;;;;;5.70;3.00;;;;;;;3.23;nan;-23906.28;5031374;28;20175;-64
2023/12/12 06:42:29;;;;;;;2.83;2.43;;;;;;;3.48;nan;-23913.56;5030958;28;20583;-65
2023/12/12 06:44:55;;;;;;;2.80;2.60;;;;;;;3.43;nan;-23912.13;5031275;28;20187;-65
2023/12/12 06:47:20;;;;;;;3.53;3.23;;;;;;;;;;5031542;28;20175;-65
2023/12/12 06:49:46;;;;;;;2.63;2.43;;;;;;;3.89;nan;-23924.94;5031229;28;20179;-65
2023/12/12 06:52:11;;;;;;;12.20;3.10;;;;;;;3.80;nan;-23922.38;5031247;28;20178;-65
2023/12/12 06:54:36;;;;;;;3.00;2.67;;;;;;;3.96;nan;-23926.94;5031043;28;20274;-64
2023/12/12 06:57:03;;;;;;;2.70;2.50;;;;;;;3.81;nan;-23922.81;5031629;28;20674;-64
2023/12/12 06:59:29;;;;;;;2.03;1.93;;;;;;;3.61;nan;-23916.97;5031320;28;20193;-64
2023/12/12 07:01:55;;;;;;;2.77;2.57;;;;;;;3.79;nan;-23922.25;5031133;28;20254;-63
2023/12/12 07:04:21;;;;;;;2.47;2.27;;;;;;;3.75;nan;-23921.09;5029354;28;20246;-65
2023/12/12 07:06:47;;;;;;;3.20;2.67;;;;;;;3.92;nan;-23925.94;5028709;28;20189;-65
2023/12/12 07:09:12;;;;;;;2.43;1.93;;;;;;;3.63;nan;-23917.53;5028814;28;20183;-64
2023/12/12 07:11:38;;;;;;;3.03;2.83;;;;;;;4.00;nan;-23928.09;5030494;28;20192;-64
2023/12/12 07:14:04;;;;;;;2.73;2.53;;;;;;;3.90;nan;-23925.22;5031198;28;20213;-68
2023/12/12 07:16:29;;;;;;;2.30;2.10;;;;;;;3.31;nan;-23908.72;5030570;28;20199;-64
2023/12/12 07:18:55;;;;;;;4.07;3.10;;;;;;;3.03;nan;-23900.72;5030345;28;20168;-64
2023/12/12 07:21:21;;;;;;;11.30;3.53;;;;;;;2.83;nan;-23895.00;5030830;28;20559;-65
2023/12/12 07:23:49;;;;;;;7.87;3.87;;;;;;;2.78;nan;-23893.59;5030891;28;20171;-64
2023/12/12 07:26:18;;;;;;;2.50;2.30;;;;;;;2.50;nan;-23885.72;5030643;28;20266;-65
2023/12/12 07:28:43;;;;;;;6.17;3.67;;;;;;;2.65;nan;-23890.16;5030340;28;20255;-65
2023/12/12 07:31:10;;;;;;;3.07;2.73;;;;;;;2.29;nan;-23879.75;5029424;28;20396;-63
2023/12/12 07:33:36;;;;;;;2.67;2.47;;;;;;;2.43;nan;-23883.75;5031191;28;20182;-63
2023/12/12 07:36:02;;;;;;;1.90;1.80;;;;;;;2.29;nan;-23879.88;4558277;28;20167;-65
2023/12/12 07:38:27;;;;;;;2.83;2.33;;;;;;;2.37;nan;-23882.16;5031164;28;20167;-65
2023/12/12 07:40:52;;;;;;;2.70;2.50;;;;;;;2.24;nan;-23878.47;5030493;28;20167;-65
2023/12/12 07:43:18;;;;;;;3.13;2.83;;;;;;;2.00;nan;-23871.59;5031531;28;20206;-65
2023/12/12 07:45:43;;;;;;;7.80;3.13;;;;;;;2.16;nan;-23876.31;5028346;28;20209;-64
2023/12/12 07:48:09;;;;;;;3.67;3.13;;;;;;;1.88;nan;-23868.31;5030423;28;20191;-64
2023/12/12 07:50:34;;;;;;;4.93;2.60;;;;;;;2.34;nan;-23881.31;5030447;28;20269;-65
2023/12/12 07:53:00;;;;;;;2.80;2.60;;;;;;;2.52;nan;-23886.44;5030710;28;20180;-65
2023/12/12 07:55:25;;;;;;;1.60;1.50;;;;;;;2.42;nan;-23883.59;5030241;28;20179;-64
2023/12/12 07:57:51;;;;;;;3.07;2.53;;;;;;;2.26;nan;-23879.03;5030445;28;20320;-64
2023/12/12 08:00:16;;;;;;;2.83;2.63;;;;;;;2.23;nan;-23878.31;5032153;28;20181;-66
2023/12/12 08:02:42;;;;;;;2.30;1.77;;;;;;;2.52;nan;-23886.31;5030514;28;20591;-64
2023/12/12 08:05:08;;;;;;;2.57;2.37;;;;;;;2.70;nan;-23891.44;5030468;28;20203;-64
2023/12/12 08:07:34;;;;;;;4.50;2.63;;;;;;;2.97;nan;-23899.16;5030561;28;20506;-65
2023/12/12 08:09:59;;;;;;;3.00;2.80;;;;;;;2.93;nan;-23898.00;5030727;28;20180;-64
2023/12/12 08:12:25;;;;;;;4.10;2.90;;;;;;;3.24;nan;-23906.72;5030861;28;20591;-64
2023/12/12 08:14:52;;;;;;;2.97;2.63;;;;;;;3.35;nan;-23909.84;5030578;28;20638;-65
2023/12/12 08:17:18;;;;;;;4.23;2.53;;;;;;;3.28;nan;-23907.72;5030219;28;20242;-64
2023/12/12 08:19:43;;;;;;;3.33;2.77;;;;;;;3.81;nan;-23922.66;5030343;28;20254;-63
2023/12/12 08:22:09;;;;;;;3.90;3.57;;;;;;;3.71;nan;-23919.97;5033686;28;20203;-63
2023/12/12 08:24:34;;;;;;;3.20;3.00;;;;;;;3.93;nan;-23926.09;5034397;28;20211;-64
2023/12/12 08:27:00;;;;;;;2.07;1.97;;;;;;;3.87;nan;-23924.38;5034686;28;20152;-64
2023/12/12 08:29:25;;;;;;;2.83;2.50;;;;;;;3.81;nan;-23922.81;5034112;28;20171;-64
2023/12/12 08:31:51;;;;;;;4.33;3.03;;;;;;;3.88;nan;-23924.81;5034658;28;20170;-64
2023/12/12 08:34:16;;;;;;;3.53;3.23;;;;;;;3.76;nan;-23921.25;5034327;28;20593;-65
2023/12/12 08:36:42;;;;;;;5.63;2.97;;;;;;;3.65;nan;-23918.13;5034072;28;20583;-63
2023/12/12 08:39:07;;;;;;;4.07;3.30;;;;;;;3.88;nan;-23924.66;5033472;28;20184;-64
2023/12/12 08:41:33;;;;;;;2.10;2.00;;;;;;;3.81;nan;-23922.81;5034383;28;20171;-64
2023/12/12 08:43:59;;;;;;;3.43;3.23;;;;;;;3.99;nan;-23927.81;5034016;28;20618;-64
2023/12/12 08:46:26;;;;;;;3.23;2.90;;;;;;;4.18;nan;-23933.22;5033191;28;20183;-64
2023/12/12 08:48:54;;;;;;;8.83;3.87;;;;;;;4.11;nan;-23931.06;5032865;28;20179;-64
2023/12/12 08:51:19;;;;;;;3.77;2.70;;;;;;;4.25;nan;-23935.22;5033039;28;20184;-64
2023/12/12 08:53:45;;;;;;;6.00;4.07;;;;;;;4.43;nan;-23940.19;5033256;28;20262;-64
2023/12/12 08:56:17;;;;;;;2.07;1.97;;;;;;;4.33;nan;-23937.47;5033357;28;20191;-64
2023/12/12 08:58:43;;;;;;;3.23;2.93;;;;;;;4.25;nan;-23935.22;5033740;28;20179;-64
2023/12/12 09:01:09;;;;;;;2.73;2.53;;;;;;;4.54;nan;-23943.19;5034964;28;20171;-63
2023/12/12 09:03:35;;;;;;;2.60;2.33;;;;;;;4.68;nan;-23947.16;5034382;28;20178;-64
2023/12/12 09:06:01;;;;;;;3.10;2.77;;;;;;;4.78;nan;-23950.16;5033834;28;20175;-64
2023/12/12 09:08:26;;;;;;;7.00;3.33;;;;;;;4.71;nan;-23948.03;5033792;28;20179;-65
2023/12/12 09:10:52;;;;;;;4.33;3.43;;;;;;;4.84;nan;-23951.72;5033628;28;20511;-64
2023/12/12 09:13:17;;;;;;;3.33;2.83;;;;;;;5.12;nan;-23959.69;5032365;28;20183;-65
2023/12/12 09:15:43;;;;;;;2.73;2.53;;;;;;;5.03;nan;-23956.97;5033650;28;20233;-65
2023/12/12 09:18:09;;;;;;;8.47;4.13;;;;;;;4.94;nan;-23954.56;5033420;28;20202;-64
2023/12/12 09:20:35;;;;;;;3.47;3.03;;;;;;;5.15;nan;-23960.53;5033623;28;20176;-65
2023/12/12 09:23:00;;;;;;;3.00;2.67;;;;;;;5.31;nan;-23965.09;5033303;28;20175;-64
2023/12/12 09:25:26;;;;;;;3.83;3.53;;;;;;;5.48;nan;-23969.78;5033531;28;20167;-65
2023/12/12 09:27:51;;;;;;;13.83;4.00;;;;;;;5.41;nan;-23967.78;5033707;28;20164;-64
2023/12/12 09:30:17;;;;;;;3.27;3.07;;;;;;;5.41;nan;-23967.66;5033499;28;20226;-65
2023/12/12 09:32:42;;;;;;;10.07;3.10;;;;;;;5.89;nan;-23981.16;5032896;28;20180;-66
2023/12/12 09:35:09;;;;;;;3.47;3.03;;;;;;;5.84;nan;-23661.81;5033100;28;20230;-65
2023/12/12 09:37:35;;;;;;;3.77;3.33;;;;;;;5.93;nan;-23347.94;5033085;28;20285;-64
2023/12/12 09:40:03;;;;;;;4.90;4.47;;;;;;;6.06;nan;-23984.13;5033428;28;20209;-64
2023/12/12 09:42:32;;;;;;;3.47;3.17;;;;;;;6.18;nan;-23987.53;5033321;28;20172;-65
2023/12/12 09:44:59;;;;;;;4.00;3.30;;;;;;;6.37;nan;-23359.84;5033001;28;20184;-64
2023/12/12 09:47:29;;;;;;;6.40;4.13;;;;;;;6.68;nan;-23051.50;5032872;28;20182;-68
2023/12/12 09:49:55;;;;;;;4.33;3.43;;;;;;;6.86;nan;-22105.81;5032470;28;20176;-64
2023/12/12 09:52:23;;;;;;;3.73;3.40;;;;;;;6.77;nan;-21786.69;5032298;28;20168;-65
2023/12/12 09:54:49;;;;;;;4.33;3.67;;;;;;;6.95;nan;-21791.28;5032278;28;20179;-64
2023/12/12 09:57:18;;;;;;;4.43;4.03;;;;;;;7.33;nan;-19896.94;5032184;28;20199;-64
2023/12/12 09:59:43;;;;;;;4.13;3.78;;;;;;;7.41;nan;-18628.97;5032428;28;20761;-65
2023/12/12 10:02:15;;;;;;;3.40;3.10;;;;;;;7.51;nan;-18630.84;5034450;28;20187;-65
2023/12/12 10:04:43;;;;;;;3.08;2.85;;;;;;;4.17;nan;-18882.09;5032259;28;20171;-64
2023/12/12 10:07:11;;;;;;;4.78;3.78;;;;;;;7.75;nan;-17682.31;5032301;28;20164;-64
2023/12/12 10:09:37;;;;;;;8.98;3.92;;;;;;;7.81;nan;-17365.56;5032238;28;20167;-63
2023/12/12 10:12:02;;;;;;;3.90;3.42;;;;;;;7.82;nan;-16094.09;5032262;28;20274;-63
2023/12/12 10:14:43;;;;;;;6.78;4.13;;;;;;;7.45;nan;-15770.66;5031835;28;20179;-64
2023/12/12 10:17:11;;;;;;;3.17;2.88;;;;;;;7.63;nan;-15773.31;5031653;28;20187;-65
2023/12/12 10:19:40;;;;;;;3.67;3.28;;;;;;;7.99;nan;-15460.53;5031756;28;20559;-63
2023/12/12 10:22:08;;;;;;;3.22;2.90;;;;;;;7.85;nan;-15458.53;5032354;28;20180;-64
2023/12/12 10:24:35;;;;;;;5.35;3.97;;;;;;;8.08;nan;-14188.75;5030340;28;20274;-64
2023/12/12 10:27:01;;;;;;;4.43;3.83;;;;;;;8.05;nan;-13870.09;5032022;28;20183;-64
2023/12/12 10:29:27;;;;;;;9.82;5.15;;;;;;;8.00;nan;-14824.34;5031364;28;20263;-64
2023/12/12 10:31:53;;;;;;;4.55;4.13;;;;;;;8.41;nan;-12918.72;5031564;28;20693;-63
2023/12/12 10:34:24;;;;;;;4.28;3.88;;;;;;;8.42;nan;-11325.44;5031453;28;20171;-63
2023/12/12 10:36:49;;;;;;;4.78;3.88;;;;;;;8.49;nan;-12282.16;5031312;28;20199;-65
2023/12/12 10:39:16;;;;;;;8.40;4.20;;;;;;;8.56;nan;-11326.47;5031579;28;20189;-65
2023/12/12 10:41:56;;;;;;;8.25;2.97;;;;;;;8.81;nan;-10371.31;5031730;28;20315;-64
2023/12/12 10:44:36;;;;;;;9.98;3.97;;;;;;;9.00;nan;-7818.25;5030920;28;20642;-65
2023/12/12 10:47:03;;;;;;;12.98;3.80;;;;;;;8.86;nan;-7818.03;5031464;28;20714;-65
2023/12/12 10:49:31;;;;;;;4.38;3.40;;;;;;;8.84;nan;-6540.50;5031705;28;20172;-66
2023/12/12 10:51:58;;;;;;;6.25;4.88;;;;;;;8.93;nan;-6859.94;5031826;28;20255;-65
2023/12/12 10:54:25;;;;;;;4.80;3.22;;;;;;;9.09;nan;-6220.81;5031417;28;20622;-66
2023/12/12 10:56:51;;;;;;;4.97;2.85;;;;;;;8.88;nan;-6540.50;5030735;28;20677;-65
2023/12/12 10:59:17;;;;;;;6.47;3.42;;;;;;;9.42;nan;-4941.16;5030983;28;20171;-64
2023/12/12 11:01:47;;;;;;;3.90;3.58;;;;;;;9.56;nan;-3980.66;5030731;28;20186;-66
2023/12/12 11:04:17;;;;;;;8.60;4.05;;;;;;;9.55;nan;-3020.44;5035005;28;20185;-65
2023/12/12 11:06:43;;;;;;;3.75;3.30;;;;;;;9.61;nan;-1739.06;5031573;28;20186;-64
2023/12/12 11:09:10;;;;;;;6.00;3.67;;;;;;;9.76;nan;-776.50;5030150;28;20191;-66
2023/12/12 11:11:39;;;;;;;5.35;3.92;;;;;;;9.97;nan;2112.06;5029460;28;20179;-65
2023/12/12 11:14:06;;;;;;;6.03;3.45;;;;;;;9.91;nan;1790.34;5029141;28;20179;-64
2023/12/12 11:16:32;;;;;;;4.78;4.38;;;;;;;10.14;nan;3077.59;5029108;28;20191;-64
2023/12/12 11:18:59;;;;;;;6.28;4.30;;;;;;;10.31;nan;3080.38;5029921;28;20171;-64
2023/12/12 11:21:43;;;;;;;3.65;3.33;;;;;;;10.57;nan;3405.88;5029908;28;20230;-64
2023/12/12 11:24:09;;;;;;;6.07;4.32;;;;;;;10.53;nan;5654.97;5029369;28;20237;-64
2023/12/12 11:26:36;;;;;;;6.32;3.70;;;;;;;10.66;nan;7587.69;5029726;28;20627;-65
2023/12/12 11:29:05;;;;;;;3.75;3.40;;;;;;;10.40;nan;8224.78;5029399;28;20163;-64
2023/12/12 11:31:34;;;;;;;4.22;3.00;;;;;;;10.90;nan;8881.25;5031057;28;20219;-66
2023/12/12 11:34:08;;;;;;;5.15;3.90;;;;;;;11.10;nan;9530.50;5030770;28;20191;-65
2023/12/12 11:36:53;;;;;;;3.65;2.95;;;;;;;11.29;nan;8246.88;5030971;28;20227;-65
2023/12/12 11:39:49;;;;;;;4.18;3.33;;;;;;;11.16;nan;7921.56;5030768;28;20175;-65
2023/12/12 11:42:23;;;;;;;7.43;3.25;;;;;;;11.31;nan;7603.09;5030700;28;20542;-67
2023/12/12 11:44:58;;;;;;;9.15;4.05;;;;;;;11.36;nan;7926.47;5030106;28;20178;-66
2023/12/12 11:47:26;;;;;;;5.97;3.40;;;;;;;11.29;nan;10502.63;5030653;28;20179;-64